Terminal Aerodrome Forecast
Issued by NWS Albany, NY

Home | Current Version | Previous Version | Text Only | Print | Product List | Glossary On
Versions: 1 2 3 4 5 6 7 8 9 10 11 12 13 14
000
FTUS41 KALY 061735
TAFPOU
TAF
KPOU 061735Z 0618/0718 04004KT P6SM SCT015 BKN200
     FM062200 09003KT P6SM OVC100
     FM070400 07003KT 4SM -RASN BKN015 OVC050
     FM070600 05003KT 2SM -RASN OVC008
     FM071400 VRB04KT P6SM SCT008 OVC025=

USA.gov is the U.S. government's official web portal to all federal, state and local government web resources and services.